createdAt,value
2022-10-25T00:00:05.521Z,22.69
2022-10-25T00:02:34.405Z,22.69
2022-10-25T00:05:00.925Z,22.69
2022-10-25T00:07:27.373Z,22.68
2022-10-25T00:09:53.808Z,22.68
2022-10-25T00:12:20.268Z,22.68
2022-10-25T00:14:46.908Z,22.66
2022-10-25T00:17:13.442Z,22.67
2022-10-25T00:19:39.892Z,22.67
2022-10-25T00:22:06.445Z,22.66
2022-10-25T00:24:32.905Z,22.66
2022-10-25T00:26:59.351Z,22.66
2022-10-25T00:29:25.833Z,22.65
2022-10-25T00:31:52.265Z,22.64
2022-10-25T00:34:18.734Z,22.65
2022-10-25T00:36:45.187Z,22.64
2022-10-25T00:39:11.638Z,22.64
2022-10-25T00:41:38.173Z,22.64
2022-10-25T00:44:38.494Z,22.64
2022-10-25T00:47:14.544Z,22.63
2022-10-25T00:49:43.125Z,22.63
2022-10-25T00:52:10.545Z,22.63
2022-10-25T00:54:42.456Z,22.62
2022-10-25T00:57:15.644Z,22.62
2022-10-25T00:59:43.785Z,22.62
2022-10-25T01:02:11.359Z,22.62
2022-10-25T01:04:37.982Z,22.61
2022-10-25T01:07:04.589Z,22.61
2022-10-25T01:09:33.925Z,22.61
2022-10-25T01:12:00.374Z,22.61
2022-10-25T01:14:27.601Z,22.61
2022-10-25T01:17:06.716Z,22.60
2022-10-25T01:20:10.905Z,22.60
2022-10-25T01:22:59.081Z,22.60
2022-10-25T01:25:41.576Z,22.58
2022-10-25T01:28:47.673Z,22.59
2022-10-25T01:31:49.624Z,22.58
2022-10-25T01:34:48.112Z,22.58
2022-10-25T01:37:27.984Z,22.58
2022-10-25T01:40:09.568Z,22.57
2022-10-25T01:42:53.299Z,22.57
2022-10-25T01:45:24.313Z,22.56
2022-10-25T01:47:56.179Z,22.55
2022-10-25T01:50:28.113Z,22.52
2022-10-25T01:55:53.656Z,22.49
2022-10-25T01:59:08.409Z,22.47
2022-10-25T02:02:07.148Z,22.46
2022-10-25T02:04:44.443Z,22.45
2022-10-25T02:07:18.153Z,22.45
2022-10-25T02:12:51.151Z,22.42
2022-10-25T02:15:30.063Z,22.42
2022-10-25T02:18:00.576Z,22.41
2022-10-25T02:20:31.541Z,22.40
2022-10-25T02:23:01.034Z,22.40
2022-10-25T02:25:29.382Z,22.39
2022-10-25T02:27:58.343Z,22.38
2022-10-25T02:30:24.899Z,22.38
2022-10-25T02:32:51.764Z,22.37
2022-10-25T02:35:19.040Z,22.36
2022-10-25T02:37:45.738Z,22.36
2022-10-25T02:40:12.872Z,22.35
2022-10-25T02:42:39.332Z,22.33
2022-10-25T02:45:06.821Z,22.33
2022-10-25T02:47:33.271Z,22.32
2022-10-25T02:49:59.748Z,22.32
2022-10-25T02:52:26.188Z,22.30
2022-10-25T02:54:52.653Z,22.31
2022-10-25T02:57:19.092Z,22.31
2022-10-25T02:59:45.551Z,22.29
2022-10-25T03:02:12.004Z,22.29
2022-10-25T03:04:38.456Z,22.29
2022-10-25T03:07:04.993Z,22.28
2022-10-25T03:09:31.502Z,22.27
2022-10-25T03:11:58.165Z,22.27
2022-10-25T03:14:25.493Z,22.25
2022-10-25T03:16:51.945Z,22.25
2022-10-25T03:19:18.500Z,22.25
2022-10-25T03:21:44.964Z,22.24
2022-10-25T03:24:11.417Z,22.24
2022-10-25T03:26:38.023Z,22.24
2022-10-25T03:29:04.483Z,22.23
2022-10-25T03:31:30.923Z,22.22
2022-10-25T03:33:57.355Z,22.23
2022-10-25T03:36:23.807Z,22.23
2022-10-25T03:38:50.253Z,22.22
2022-10-25T03:41:16.705Z,22.21
2022-10-25T03:43:43.154Z,22.21
2022-10-25T03:46:09.664Z,22.19
2022-10-25T03:48:36.660Z,22.18
2022-10-25T03:51:03.153Z,22.17
2022-10-25T03:53:29.609Z,22.18
2022-10-25T03:55:56.065Z,22.17
2022-10-25T03:58:22.588Z,22.17
2022-10-25T04:00:49.123Z,22.16
2022-10-25T04:03:15.783Z,22.15
2022-10-25T04:05:42.322Z,22.15
2022-10-25T04:08:08.831Z,22.16
2022-10-25T04:10:35.393Z,22.15
2022-10-25T04:13:01.889Z,22.15
2022-10-25T04:15:28.379Z,22.14
2022-10-25T04:17:54.915Z,22.13
2022-10-25T04:20:21.748Z,22.13
2022-10-25T04:22:57.950Z,22.12
2022-10-25T04:25:26.223Z,22.12
2022-10-25T04:27:52.935Z,22.13
2022-10-25T04:30:20.060Z,22.11
2022-10-25T04:32:46.893Z,22.11
2022-10-25T04:35:13.711Z,22.11
2022-10-25T04:37:40.152Z,22.11
2022-10-25T04:40:07.549Z,22.10
2022-10-25T04:42:34.452Z,22.09
2022-10-25T04:45:01.508Z,22.09
2022-10-25T04:47:31.498Z,22.09
2022-10-25T04:49:58.108Z,22.09
2022-10-25T04:52:24.605Z,22.07
2022-10-25T04:54:51.036Z,22.08
2022-10-25T04:57:17.491Z,22.07
2022-10-25T04:59:43.926Z,22.07
2022-10-25T05:02:11.114Z,22.06
2022-10-25T05:04:37.574Z,22.05
2022-10-25T05:07:04.026Z,22.06
2022-10-25T05:09:30.720Z,22.04
2022-10-25T05:11:57.180Z,22.03
2022-10-25T05:14:23.620Z,22.02
2022-10-25T05:16:50.111Z,22.00
2022-10-25T05:19:16.668Z,21.99
2022-10-25T05:21:43.119Z,21.98
2022-10-25T05:24:09.568Z,21.99
2022-10-25T05:26:36.005Z,21.99
2022-10-25T05:29:04.562Z,22.00
2022-10-25T05:31:34.568Z,21.99
2022-10-25T05:34:01.284Z,22.00
2022-10-25T05:36:32.858Z,21.99
2022-10-25T05:39:03.239Z,21.98
2022-10-25T05:41:32.031Z,22.00
2022-10-25T05:44:01.210Z,21.99
2022-10-25T05:46:27.759Z,21.98
2022-10-25T05:48:54.221Z,21.98
2022-10-25T05:51:42.155Z,21.98
2022-10-25T05:54:13.895Z,21.98
2022-10-25T05:56:41.646Z,21.98
2022-10-25T05:59:13.179Z,21.98
2022-10-25T06:01:48.876Z,21.98
2022-10-25T06:04:16.650Z,21.98
2022-10-25T06:06:45.256Z,21.98
2022-10-25T06:09:13.133Z,21.97
2022-10-25T06:11:40.050Z,21.97
2022-10-25T06:14:07.205Z,21.97
2022-10-25T06:16:33.775Z,21.96
2022-10-25T06:19:00.308Z,21.97
2022-10-25T06:21:28.461Z,21.97
2022-10-25T06:23:56.426Z,21.96
2022-10-25T06:26:25.745Z,21.96
2022-10-25T06:28:57.583Z,21.96
2022-10-25T06:31:24.476Z,21.95
2022-10-25T06:33:51.207Z,21.95
2022-10-25T06:36:20.171Z,21.95
2022-10-25T06:38:47.652Z,21.95
2022-10-25T06:41:19.723Z,21.95
2022-10-25T06:43:46.368Z,21.95
2022-10-25T06:46:20.398Z,21.95
2022-10-25T06:48:46.957Z,21.93
2022-10-25T06:51:13.569Z,21.94
2022-10-25T06:53:40.108Z,21.92
2022-10-25T06:56:10.608Z,21.92
2022-10-25T06:58:41.198Z,21.92
2022-10-25T07:01:11.295Z,21.92
2022-10-25T07:03:38.069Z,21.92
2022-10-25T07:06:12.817Z,21.92
2022-10-25T07:08:41.842Z,21.92
2022-10-25T07:11:14.065Z,21.91
2022-10-25T07:13:40.841Z,21.92
2022-10-25T07:16:09.286Z,21.91
2022-10-25T07:18:36.552Z,21.91
2022-10-25T07:21:06.277Z,21.90
2022-10-25T07:23:33.239Z,21.89
2022-10-25T07:26:00.291Z,21.89
2022-10-25T07:28:27.246Z,21.89
2022-10-25T07:30:54.024Z,21.89
2022-10-25T07:33:20.984Z,21.90
2022-10-25T07:35:59.130Z,21.89
2022-10-25T07:38:35.416Z,21.89
2022-10-25T07:41:01.878Z,21.88
2022-10-25T07:43:28.962Z,21.89
2022-10-25T07:45:55.938Z,21.88
2022-10-25T07:48:22.883Z,21.87
2022-10-25T07:50:49.344Z,21.89
2022-10-25T07:53:15.810Z,21.86
2022-10-25T07:55:42.261Z,21.87
2022-10-25T07:58:11.825Z,21.86
2022-10-25T08:00:38.403Z,21.86
2022-10-25T08:03:05.009Z,21.84
2022-10-25T08:05:31.516Z,21.86
2022-10-25T08:07:58.052Z,21.85
2022-10-25T08:10:24.617Z,21.85
2022-10-25T08:12:51.453Z,21.86
2022-10-25T08:15:18.175Z,21.85
2022-10-25T08:17:45.010Z,21.86
2022-10-25T08:20:11.950Z,21.84
2022-10-25T08:22:38.441Z,21.85
2022-10-25T08:25:05.450Z,21.85
2022-10-25T08:27:32.553Z,21.84
2022-10-25T08:29:59.132Z,21.84
2022-10-25T08:32:25.610Z,21.83
2022-10-25T08:34:52.059Z,21.84
2022-10-25T08:37:18.480Z,21.83
2022-10-25T08:39:45.018Z,21.82
2022-10-25T08:42:22.808Z,21.83
2022-10-25T08:45:30.721Z,21.82
2022-10-25T08:47:58.825Z,21.83
2022-10-25T08:50:34.268Z,21.82
2022-10-25T08:53:06.499Z,21.82
2022-10-25T08:55:41.612Z,21.82
2022-10-25T08:58:43.562Z,21.81
2022-10-25T09:01:16.181Z,21.81
2022-10-25T09:03:42.698Z,21.80
2022-10-25T09:06:33.380Z,21.81
2022-10-25T09:09:06.453Z,21.81
2022-10-25T09:12:17.624Z,21.81
2022-10-25T09:15:16.696Z,21.81
2022-10-25T09:17:51.911Z,21.80
2022-10-25T09:20:32.983Z,21.80
2022-10-25T09:23:19.071Z,21.80
2022-10-25T09:26:04.612Z,21.79
2022-10-25T09:28:43.992Z,21.79
2022-10-25T09:31:18.380Z,21.80
2022-10-25T09:33:47.347Z,21.79
2022-10-25T09:36:14.836Z,21.80
2022-10-25T09:38:51.928Z,21.80
2022-10-25T09:41:39.731Z,21.79
2022-10-25T09:44:30.207Z,21.80
2022-10-25T09:47:22.957Z,21.79
2022-10-25T09:49:58.107Z,21.80
2022-10-25T09:52:51.820Z,21.79
2022-10-25T09:55:37.395Z,21.79
2022-10-25T09:58:04.009Z,21.79
2022-10-25T10:00:30.891Z,21.78
2022-10-25T10:02:57.522Z,21.78
2022-10-25T10:05:24.160Z,21.79
2022-10-25T10:07:51.827Z,21.78
2022-10-25T10:10:24.925Z,21.79
2022-10-25T10:13:00.451Z,21.78
2022-10-25T10:15:52.584Z,21.78
2022-10-25T10:18:24.037Z,21.78
2022-10-25T10:21:10.715Z,21.78
2022-10-25T10:23:43.064Z,21.78
2022-10-25T10:26:28.080Z,21.78
2022-10-25T10:29:08.685Z,21.79
2022-10-25T10:31:44.765Z,21.79
2022-10-25T10:34:26.572Z,21.79
2022-10-25T10:37:29.359Z,21.79
2022-10-25T10:40:01.426Z,21.80
2022-10-25T10:42:34.108Z,21.81
2022-10-25T10:45:02.247Z,21.81
2022-10-25T10:47:35.261Z,21.83
2022-10-25T10:50:09.913Z,21.82
2022-10-25T10:52:46.319Z,21.82
2022-10-25T10:55:34.440Z,21.83
2022-10-25T10:58:07.908Z,21.83
2022-10-25T11:00:34.722Z,21.85
2022-10-25T11:03:01.174Z,21.84
2022-10-25T11:05:34.854Z,21.85
2022-10-25T11:08:03.581Z,21.85
2022-10-25T11:10:32.639Z,21.85
2022-10-25T11:13:08.317Z,21.86
2022-10-25T11:16:07.149Z,21.86
2022-10-25T11:18:45.279Z,21.86
2022-10-25T11:21:14.704Z,21.86
2022-10-25T11:24:06.472Z,21.86
2022-10-25T11:26:45.329Z,21.86
2022-10-25T11:29:21.168Z,21.87
2022-10-25T11:32:05.832Z,21.86
2022-10-25T11:34:47.898Z,21.86
2022-10-25T11:37:22.248Z,21.87
2022-10-25T11:40:05.372Z,21.88
2022-10-25T11:42:40.797Z,21.87
2022-10-25T11:45:13.298Z,21.87
2022-10-25T11:47:57.785Z,21.86
2022-10-25T11:50:36.392Z,21.87
2022-10-25T11:53:29.296Z,21.87
2022-10-25T11:56:05.289Z,21.87
2022-10-25T11:58:45.385Z,21.87
2022-10-25T12:01:42.880Z,21.87
2022-10-25T12:04:42.240Z,21.88
2022-10-25T12:07:11.992Z,21.89
2022-10-25T12:10:15.122Z,21.89
2022-10-25T12:13:12.075Z,21.89
2022-10-25T12:15:42.368Z,21.89
2022-10-25T12:18:15.559Z,21.89
2022-10-25T12:20:45.404Z,21.89
2022-10-25T12:23:16.598Z,21.88
2022-10-25T12:25:52.920Z,21.90
2022-10-25T12:28:25.398Z,21.89
2022-10-25T12:30:58.450Z,21.89
2022-10-25T12:33:24.840Z,21.90
2022-10-25T12:35:54.238Z,21.89
2022-10-25T12:38:46.802Z,21.90
2022-10-25T12:41:24.436Z,21.89
2022-10-25T12:44:28.644Z,21.91
2022-10-25T12:47:10.257Z,21.90
2022-10-25T12:49:58.064Z,21.90
2022-10-25T12:52:39.911Z,21.90
2022-10-25T12:55:21.392Z,21.90
2022-10-25T12:58:07.946Z,21.90
2022-10-25T13:00:54.632Z,21.90
2022-10-25T13:03:46.002Z,21.90
2022-10-25T13:06:31.225Z,21.90
2022-10-25T13:09:13.635Z,21.90
2022-10-25T13:11:48.611Z,21.90
2022-10-25T13:14:27.156Z,21.90
2022-10-25T13:17:16.406Z,21.89
2022-10-25T13:19:54.012Z,21.90
2022-10-25T13:22:37.784Z,21.91
2022-10-25T13:25:25.771Z,21.91
2022-10-25T13:28:10.786Z,21.91
2022-10-25T13:30:37.262Z,21.91
2022-10-25T13:33:24.028Z,21.92
2022-10-25T13:35:50.619Z,21.91
2022-10-25T13:38:22.461Z,21.91
2022-10-25T13:41:15.412Z,21.91
2022-10-25T13:43:58.831Z,21.92
2022-10-25T13:46:45.964Z,21.91
2022-10-25T13:49:42.652Z,21.91
2022-10-25T13:52:32.193Z,21.90
2022-10-25T13:54:59.129Z,21.91
2022-10-25T13:57:49.560Z,21.91
2022-10-25T14:00:49.701Z,21.90
2022-10-25T14:03:23.043Z,21.90
2022-10-25T14:05:55.788Z,21.91
2022-10-25T14:08:46.837Z,21.90
2022-10-25T14:11:20.735Z,21.90
2022-10-25T14:13:56.177Z,21.90
2022-10-25T14:16:32.453Z,21.90
2022-10-25T14:19:06.368Z,21.90
2022-10-25T14:21:33.427Z,21.90
2022-10-25T14:24:06.269Z,21.89
2022-10-25T14:26:32.728Z,21.89
2022-10-25T14:29:17.632Z,21.90
2022-10-25T14:31:44.087Z,21.90
2022-10-25T14:34:22.601Z,21.90
2022-10-25T14:36:51.988Z,21.90
2022-10-25T14:39:24.043Z,21.89
2022-10-25T14:41:51.818Z,21.89
2022-10-25T14:44:28.657Z,21.90
2022-10-25T14:47:00.050Z,21.90
2022-10-25T14:49:27.478Z,21.90
2022-10-25T14:51:57.939Z,21.90
2022-10-25T14:54:35.684Z,21.90
2022-10-25T14:57:08.656Z,21.90
2022-10-25T14:59:46.282Z,21.89
2022-10-25T15:02:19.135Z,21.89
2022-10-25T15:04:48.568Z,21.89
2022-10-25T15:07:22.571Z,21.89
2022-10-25T15:09:50.516Z,21.89
2022-10-25T15:12:20.271Z,21.89
2022-10-25T15:14:48.348Z,21.89
2022-10-25T15:17:35.440Z,21.89
2022-10-25T15:20:05.147Z,21.89
2022-10-25T15:22:37.690Z,21.87
2022-10-25T15:25:19.596Z,21.88
2022-10-25T15:27:46.149Z,21.88
2022-10-25T15:30:40.628Z,21.87
2022-10-25T15:33:17.372Z,21.87
2022-10-25T15:36:05.130Z,21.89
2022-10-25T15:39:01.536Z,21.88
2022-10-25T15:41:23.209Z,21.89
2022-10-25T15:43:49.944Z,21.89
2022-10-25T15:46:33.299Z,21.87
2022-10-25T15:49:03.077Z,21.87
2022-10-25T15:51:33.026Z,21.89
2022-10-25T15:53:59.573Z,21.90
2022-10-25T15:56:26.092Z,21.87
2022-10-25T15:58:52.630Z,21.88
2022-10-25T16:01:19.530Z,21.87
2022-10-25T16:03:46.178Z,21.88
2022-10-25T16:06:14.162Z,21.88
2022-10-25T16:08:42.006Z,21.90
2022-10-25T16:11:18.724Z,21.92
2022-10-25T16:13:47.901Z,21.93
2022-10-25T16:16:39.499Z,21.96
2022-10-25T16:19:09.451Z,21.95
2022-10-25T16:21:35.895Z,21.95
2022-10-25T16:24:02.365Z,21.96
2022-10-25T16:26:35.101Z,21.96
2022-10-25T16:29:01.577Z,21.98
2022-10-25T16:31:28.044Z,21.99
2022-10-25T16:33:54.911Z,21.99
2022-10-25T16:36:21.351Z,22.00
2022-10-25T16:38:48.272Z,22.00
2022-10-25T16:41:26.786Z,22.00
2022-10-25T16:43:53.225Z,22.02
2022-10-25T16:46:19.732Z,22.02
2022-10-25T16:48:46.442Z,22.02
2022-10-25T16:51:14.325Z,22.03
2022-10-25T16:53:41.589Z,22.03
2022-10-25T16:56:11.867Z,22.05
2022-10-25T16:58:39.268Z,22.05
2022-10-25T17:01:28.971Z,22.05
2022-10-25T17:03:55.677Z,22.06
2022-10-25T17:06:40.162Z,22.07
2022-10-25T17:09:07.565Z,22.08
2022-10-25T17:11:34.088Z,22.09
2022-10-25T17:14:00.515Z,22.09
2022-10-25T17:16:27.015Z,22.10
2022-10-25T17:18:53.441Z,22.12
2022-10-25T17:21:19.932Z,22.12
2022-10-25T17:23:46.409Z,22.09
2022-10-25T17:26:12.973Z,22.09
2022-10-25T17:28:43.158Z,22.08
2022-10-25T17:31:13.251Z,22.11
2022-10-25T17:33:40.649Z,22.13
2022-10-25T17:36:10.638Z,22.17
2022-10-25T17:38:37.426Z,22.20
2022-10-25T17:41:04.379Z,22.23
2022-10-25T17:43:31.068Z,22.27
2022-10-25T17:46:02.326Z,22.31
2022-10-25T17:48:29.964Z,22.34
2022-10-25T17:51:08.728Z,22.38
2022-10-25T17:53:35.332Z,22.42
2022-10-25T17:56:18.898Z,22.45
2022-10-25T17:58:47.064Z,22.49
2022-10-25T18:01:16.940Z,22.53
2022-10-25T18:03:43.471Z,22.58
2022-10-25T18:06:12.717Z,22.63
2022-10-25T18:08:39.735Z,22.67
2022-10-25T18:11:19.342Z,22.73
2022-10-25T18:13:45.809Z,22.78
2022-10-25T18:16:12.372Z,22.83
2022-10-25T18:18:39.064Z,22.88
2022-10-25T18:21:11.472Z,22.94
2022-10-25T18:23:38.041Z,22.98
2022-10-25T18:26:07.340Z,23.04
2022-10-25T18:28:35.112Z,23.08
2022-10-25T18:31:08.544Z,23.13
2022-10-25T18:33:35.797Z,23.18
2022-10-25T18:36:07.621Z,23.21
2022-10-25T18:38:34.429Z,23.24
2022-10-25T18:41:06.208Z,23.29
2022-10-25T18:43:33.419Z,23.34
2022-10-25T18:46:00.234Z,23.38
2022-10-25T18:48:27.347Z,23.37
2022-10-25T18:50:54.248Z,23.36
2022-10-25T18:53:21.368Z,23.38
2022-10-25T18:55:51.266Z,23.38
2022-10-25T18:58:17.899Z,23.40
2022-10-25T19:00:44.768Z,23.43
2022-10-25T19:03:12.780Z,23.46
2022-10-25T19:05:40.136Z,23.47
2022-10-25T19:08:08.488Z,23.50
2022-10-25T19:10:39.827Z,23.52
2022-10-25T19:13:07.653Z,23.54
2022-10-25T19:15:34.222Z,23.56
2022-10-25T19:18:00.973Z,23.56
2022-10-25T19:20:27.460Z,23.58
2022-10-25T19:22:58.506Z,23.60
2022-10-25T19:25:28.658Z,23.60
2022-10-25T19:27:55.749Z,23.62
2022-10-25T19:30:22.933Z,23.61
2022-10-25T19:32:49.938Z,23.61
2022-10-25T19:35:16.933Z,23.63
2022-10-25T19:37:43.500Z,23.62
2022-10-25T19:40:11.113Z,23.63
2022-10-25T19:42:37.932Z,23.63
2022-10-25T19:45:05.333Z,23.63
2022-10-25T19:47:34.403Z,23.63
2022-10-25T19:50:01.415Z,23.63
2022-10-25T19:52:27.865Z,23.63
2022-10-25T19:54:54.359Z,23.63
2022-10-25T19:57:20.859Z,23.63
2022-10-25T19:59:47.356Z,23.64
2022-10-25T20:02:13.867Z,23.63
2022-10-25T20:04:40.392Z,23.64
2022-10-25T20:07:06.912Z,23.64
2022-10-25T20:09:33.392Z,23.65
2022-10-25T20:11:59.918Z,23.64
2022-10-25T20:14:26.525Z,23.65
2022-10-25T20:16:52.989Z,23.65
2022-10-25T20:19:19.433Z,23.65
2022-10-25T20:21:45.915Z,23.64
2022-10-25T20:24:12.483Z,23.65
2022-10-25T20:26:41.168Z,23.66
2022-10-25T20:29:17.044Z,23.66
2022-10-25T20:31:46.873Z,23.66
2022-10-25T20:34:13.306Z,23.67
2022-10-25T20:36:39.817Z,23.67
2022-10-25T20:39:06.317Z,23.67
2022-10-25T20:41:35.120Z,23.67
2022-10-25T20:44:05.746Z,23.67
2022-10-25T20:46:33.255Z,23.67
2022-10-25T20:49:00.867Z,23.67
2022-10-25T20:51:28.049Z,23.68
2022-10-25T20:53:54.680Z,23.69
2022-10-25T20:56:21.966Z,23.71
2022-10-25T20:58:48.352Z,23.73
2022-10-25T21:01:15.527Z,23.75
2022-10-25T21:03:42.052Z,23.79
2022-10-25T21:06:10.614Z,23.81
2022-10-25T21:08:38.059Z,23.86
2022-10-25T21:11:07.236Z,23.88
2022-10-25T21:13:35.341Z,23.93
2022-10-25T21:16:08.699Z,23.95
2022-10-25T21:18:36.101Z,23.99
2022-10-25T21:21:05.854Z,24.03
2022-10-25T21:23:32.681Z,24.06
2022-10-25T21:26:03.806Z,24.09
2022-10-25T21:28:39.584Z,24.12
2022-10-25T21:31:08.905Z,24.14
2022-10-25T21:33:35.389Z,24.15
2022-10-25T21:36:07.408Z,24.17
2022-10-25T21:38:33.948Z,24.19
2022-10-25T21:41:07.396Z,24.20
2022-10-25T21:43:34.271Z,24.22
2022-10-25T21:46:04.705Z,24.24
2022-10-25T21:48:31.167Z,24.25
2022-10-25T21:51:00.435Z,24.26
2022-10-25T21:53:27.411Z,24.28
2022-10-25T21:56:14.841Z,24.30
2022-10-25T21:58:43.073Z,24.31
2022-10-25T22:01:15.272Z,24.33
2022-10-25T22:03:42.423Z,24.34
2022-10-25T22:06:10.986Z,24.36
2022-10-25T22:08:37.800Z,24.39
2022-10-25T22:11:08.493Z,24.42
2022-10-25T22:13:35.222Z,24.42
2022-10-25T22:16:07.749Z,24.40
2022-10-25T22:18:35.577Z,24.39
2022-10-25T22:21:12.484Z,24.37
2022-10-25T22:23:39.548Z,24.35
2022-10-25T22:26:08.777Z,24.33
2022-10-25T22:28:39.821Z,24.31
2022-10-25T22:31:09.000Z,24.28
2022-10-25T22:33:35.635Z,24.27
2022-10-25T22:36:06.983Z,24.25
2022-10-25T22:38:34.428Z,24.24
2022-10-25T22:41:03.756Z,24.22
2022-10-25T22:43:30.615Z,24.20
2022-10-25T22:46:00.705Z,24.18
2022-10-25T22:48:34.213Z,24.15
2022-10-25T22:51:01.180Z,24.14
2022-10-25T22:53:28.773Z,24.11
2022-10-25T22:55:57.908Z,24.09
2022-10-25T22:58:25.879Z,24.06
2022-10-25T23:03:39.650Z,24.02
2022-10-25T23:06:12.324Z,24.00
2022-10-25T23:08:39.149Z,23.99
2022-10-25T23:11:08.215Z,23.96
2022-10-25T23:13:35.983Z,23.95
2022-10-25T23:16:03.788Z,23.92
2022-10-25T23:18:30.264Z,23.90
2022-10-25T23:21:00.912Z,23.88
2022-10-25T23:23:28.941Z,23.86
2022-10-25T23:26:00.255Z,23.84
2022-10-25T23:28:28.056Z,23.81
2022-10-25T23:30:54.523Z,23.78
2022-10-25T23:33:20.977Z,23.77
2022-10-25T23:35:47.475Z,23.75
2022-10-25T23:38:14.215Z,23.74
2022-10-25T23:40:45.742Z,23.71
2022-10-25T23:43:12.193Z,23.70
2022-10-25T23:45:39.866Z,23.68
2022-10-25T23:48:06.301Z,23.66
2022-10-25T23:50:32.748Z,23.65
2022-10-25T23:52:59.196Z,23.64
2022-10-25T23:55:25.653Z,23.62
2022-10-25T23:57:58.429Z,23.60
